Time;durP1;ratioP1;P1;durP2;ratioP2;P2;SDS_P1;SDS_P2;PMS_P1;PMS_P2;Temp;Humidity;BMP_temperature;BMP_pressure;BME280_temperature;BME280_humidity;BME280_pressure;Samples;Min_cycle;Max_cycle;Signal;HPM_P1;HPM_P2
2022/01/07 00:01:15;;;;;;;1.52;1.40;;;;;;;20.74;37.65;99690.33;1887372;74;28056;-71
2022/01/07 00:04:05;;;;;;;1.20;1.20;;;;;;;20.75;37.71;99689.80;1876611;75;28127;-70
2022/01/07 00:06:54;;;;;;;1.35;1.25;;;;;;;20.75;37.74;99684.34;1885727;75;28129;-69
2022/01/07 00:09:43;;;;;;;1.30;1.20;;;;;;;20.74;37.80;99683.50;1893552;75;28075;-68
2022/01/07 00:12:34;;;;;;;1.40;1.30;;;;;;;20.77;37.74;99690.42;1883365;75;28093;-71
2022/01/07 00:15:23;;;;;;;1.63;1.30;;;;;;;20.74;37.79;99688.11;1871034;75;28576;-70
2022/01/07 00:18:11;;;;;;;1.10;1.10;;;;;;;20.75;37.79;99688.44;1882131;75;28166;-71
2022/01/07 00:21:00;;;;;;;1.30;1.20;;;;;;;20.75;37.76;99686.52;1898486;75;28042;-71
2022/01/07 00:23:49;;;;;;;1.23;1.20;;;;;;;20.77;37.76;99685.77;1884021;75;28059;-71
2022/01/07 00:26:39;;;;;;;1.20;1.20;;;;;;;20.77;37.78;99681.67;1865301;75;27953;-71
2022/01/07 00:29:27;;;;;;;1.10;1.10;;;;;;;20.79;37.76;99681.48;1887712;75;27988;-73
2022/01/07 00:32:16;;;;;;;1.60;1.20;;;;;;;20.79;37.78;99686.94;1878084;75;28063;-70
2022/01/07 00:35:05;;;;;;;1.47;1.37;;;;;;;20.78;37.72;99679.27;1875687;75;28191;-71
2022/01/07 00:37:54;;;;;;;1.07;1.07;;;;;;;20.81;37.77;99684.83;1856945;77;28552;-73
2022/01/07 00:40:43;;;;;;;1.50;1.40;;;;;;;20.80;37.68;99683.14;1868726;76;28105;-70
2022/01/07 00:43:31;;;;;;;1.40;1.30;;;;;;;20.82;37.73;99681.86;1870631;75;27946;-70
2022/01/07 00:46:20;;;;;;;1.00;1.00;;;;;;;20.83;37.73;99690.90;1879227;75;28177;-70
2022/01/07 00:49:11;;;;;;;1.25;1.15;;;;;;;20.80;37.72;99692.17;1878483;75;28111;-71
2022/01/07 00:52:01;;;;;;;1.23;1.23;;;;;;;20.79;37.74;99689.67;1881607;75;28132;-70
2022/01/07 00:54:49;;;;;;;1.52;1.35;;;;;;;20.77;37.78;99689.87;1856907;77;28263;-71
2022/01/07 00:57:38;;;;;;;1.12;1.12;;;;;;;20.77;37.75;99676.77;1892198;75;28454;-70
2022/01/07 01:00:28;;;;;;;1.42;1.30;;;;;;;20.81;37.71;99689.77;1896122;75;33099;-69
2022/01/07 01:03:16;;;;;;;1.00;1.00;;;;;;;20.80;37.78;99694.05;1876135;74;28157;-71
2022/01/07 01:06:04;;;;;;;1.50;1.40;;;;;;;20.80;37.78;99691.33;1891322;75;28037;-71
2022/01/07 01:08:53;;;;;;;1.22;1.22;;;;;;;20.81;37.75;99691.13;1890950;74;28085;-69
2022/01/07 01:11:41;;;;;;;1.30;1.23;;;;;;;20.82;37.76;99694.15;1888026;74;28345;-70
2022/01/07 01:14:31;;;;;;;1.22;1.20;;;;;;;20.82;37.76;99693.34;1903858;74;28009;-70
2022/01/07 01:17:19;;;;;;;1.30;1.20;;;;;;;20.85;37.70;99700.55;1879779;74;28199;-70
2022/01/07 01:20:11;;;;;;;1.25;1.22;;;;;;;20.84;37.70;99702.14;1900796;74;28105;-73
2022/01/07 01:22:59;;;;;;;1.35;1.35;;;;;;;20.81;37.70;99699.84;1882835;74;28184;-71
2022/01/07 01:25:48;;;;;;;1.30;1.30;;;;;;;20.83;37.70;99706.76;1911011;74;28571;-72
2022/01/07 01:28:38;;;;;;;1.20;1.20;;;;;;;20.83;37.74;99707.28;1888016;74;28035;-71
2022/01/07 01:31:30;;;;;;;1.40;1.30;;;;;;;20.86;37.68;99698.14;1908519;74;28511;-73
2022/01/07 01:34:17;;;;;;;1.30;1.30;;;;;;;20.85;37.72;99699.70;1878369;76;28252;-72
2022/01/07 01:37:06;;;;;;;1.10;1.10;;;;;;;20.85;37.66;99698.34;1884621;74;30096;-72
2022/01/07 01:39:55;;;;;;;1.20;1.20;;;;;;;20.86;37.68;99704.97;1900281;74;28098;-72
2022/01/07 01:42:46;;;;;;;1.17;1.17;;;;;;;20.89;37.68;99707.76;1891410;74;28075;-72
2022/01/07 01:45:35;;;;;;;1.57;1.30;;;;;;;20.89;37.65;99702.30;1904104;74;28029;-73
2022/01/07 01:48:41;;;;;;;1.10;1.10;;;;;;;20.89;37.62;99713.22;1900996;74;28051;-69
2022/01/07 01:51:29;;;;;;;1.10;1.10;;;;;;;20.86;37.63;99710.95;1889964;74;28071;-69
2022/01/07 01:54:18;;;;;;;1.30;1.30;;;;;;;20.91;37.60;99720.14;1906300;74;28007;-68
2022/01/07 01:57:06;;;;;;;1.30;1.20;;;;;;;20.93;37.63;99717.22;1901202;74;28143;-68
2022/01/07 01:59:55;;;;;;;1.50;1.40;;;;;;;20.92;37.60;99720.98;1909926;74;29081;-69
2022/01/07 02:02:45;;;;;;;1.50;1.40;;;;;;;20.93;37.63;99725.41;1874758;74;28160;-69
2022/01/07 02:05:34;;;;;;;1.27;1.17;;;;;;;20.94;37.54;99721.08;1876685;75;28106;-69
2022/01/07 02:08:25;;;;;;;1.40;1.30;;;;;;;20.98;37.59;99725.59;1890294;75;28083;-70
2022/01/07 02:11:13;;;;;;;1.40;1.30;;;;;;;20.94;37.62;99721.08;1874430;75;28143;-69
2022/01/07 02:14:03;;;;;;;1.20;1.20;;;;;;;20.94;37.59;99713.41;1868971;76;28107;-69
2022/01/07 02:16:52;;;;;;;1.50;1.40;;;;;;;20.96;37.59;99714.02;1878499;75;28223;-68
2022/01/07 02:19:41;;;;;;;1.47;1.37;;;;;;;20.96;37.59;99709.41;1868876;76;28242;-68
2022/01/07 02:22:29;;;;;;;1.20;1.20;;;;;;;20.95;37.62;99707.75;1859722;75;28211;-68
2022/01/07 02:25:20;;;;;;;1.32;1.30;;;;;;;20.97;37.61;99712.46;1866717;75;28039;-69
2022/01/07 02:28:10;;;;;;;1.15;1.15;;;;;;;20.96;37.58;99702.58;1865811;75;28061;-68
2022/01/07 02:30:58;;;;;;;1.55;1.45;;;;;;;20.98;37.56;99701.83;1877742;75;28110;-68
2022/01/07 02:33:47;;;;;;;1.15;1.15;;;;;;;20.94;37.60;99703.33;1884720;75;28208;-69
2022/01/07 02:36:35;;;;;;;1.75;1.30;;;;;;;20.96;37.57;99693.02;1892128;75;28234;-69
2022/01/07 02:39:25;;;;;;;1.40;1.30;;;;;;;21.00;37.46;99698.38;1882383;75;28091;-69
2022/01/07 02:42:14;;;;;;;1.10;1.10;;;;;;;21.00;37.54;99700.27;1881775;75;28153;-72
2022/01/07 02:45:05;;;;;;;1.37;1.30;;;;;;;21.02;37.51;99698.99;1870022;75;28115;-72
2022/01/07 02:47:55;;;;;;;1.40;1.30;;;;;;;21.05;37.49;99694.47;1859962;75;28202;-71
2022/01/07 02:50:43;;;;;;;1.60;1.30;;;;;;;21.06;37.42;99695.31;1895806;75;29976;-72
2022/01/07 02:53:32;;;;;;;1.05;1.05;;;;;;;21.05;37.43;99695.83;1878365;75;31039;-71
2022/01/07 02:56:21;;;;;;;1.30;1.30;;;;;;;21.06;37.40;99692.06;1881081;75;28084;-71
2022/01/07 02:59:10;;;;;;;1.22;1.20;;;;;;;21.09;37.47;99692.99;1878685;75;28090;-71
2022/01/07 03:01:59;;;;;;;1.40;1.30;;;;;;;21.07;37.44;99694.27;1883921;75;28207;-74
2022/01/07 03:04:48;;;;;;;1.32;1.30;;;;;;;21.09;37.37;99683.95;1872334;74;28237;-71
2022/01/07 03:07:38;;;;;;;1.17;1.17;;;;;;;21.11;37.43;99685.94;1867626;75;28169;-73
2022/01/07 03:10:33;;;;;;;1.32;1.22;;;;;;;21.11;37.34;99691.39;1878644;75;27953;-73
2022/01/07 03:13:21;;;;;;;1.70;1.30;;;;;;;21.11;37.37;99683.20;1874750;75;28142;-74
2022/01/07 03:16:10;;;;;;;1.20;1.20;;;;;;;21.11;37.42;99680.47;1899273;75;27983;-75
2022/01/07 03:18:58;;;;;;;1.30;1.20;;;;;;;21.12;37.40;99680.80;1861203;75;28446;-72
2022/01/07 03:21:47;;;;;;;1.35;1.25;;;;;;;21.14;37.41;99680.04;1890902;75;28189;-73
2022/01/07 03:24:38;;;;;;;1.10;1.10;;;;;;;21.10;37.39;99678.27;1889452;75;28096;-73
2022/01/07 03:27:28;;;;;;;1.25;1.20;;;;;;;21.08;37.45;99678.17;1884423;75;28129;-72
2022/01/07 03:30:19;;;;;;;1.20;1.20;;;;;;;21.08;37.41;99680.91;1881440;75;28098;-72
2022/01/07 03:33:07;;;;;;;1.20;1.20;;;;;;;21.09;37.44;99678.50;1883617;75;28013;-73
2022/01/07 03:35:58;;;;;;;1.20;1.20;;;;;;;21.10;37.44;99686.45;1887401;75;28029;-74
2022/01/07 03:38:46;;;;;;;1.37;1.20;;;;;;;21.12;37.42;99684.34;1885742;75;28121;-72
2022/01/07 03:41:35;;;;;;;1.33;1.23;;;;;;;21.13;37.36;99687.91;1865497;75;28051;-72
2022/01/07 03:44:42;;;;;;;1.20;1.20;;;;;;;21.14;37.39;99693.14;1890452;75;28137;-72
2022/01/07 03:47:31;;;;;;;1.30;1.30;;;;;;;21.14;37.39;99689.60;1878321;75;28091;-73
2022/01/07 03:50:22;;;;;;;1.10;1.10;;;;;;;21.13;37.38;99692.01;1886000;75;28171;-73
2022/01/07 03:53:10;;;;;;;1.15;1.15;;;;;;;21.12;37.41;99684.89;1883430;75;28095;-72
2022/01/07 03:56:00;;;;;;;1.60;1.50;;;;;;;21.13;37.40;99687.39;1866214;75;28012;-73
2022/01/07 03:58:49;;;;;;;1.40;1.30;;;;;;;21.16;37.37;99690.22;1880889;75;28091;-72
2022/01/07 04:01:38;;;;;;;1.20;1.20;;;;;;;21.14;37.30;99690.41;1901756;73;28177;-73
2022/01/07 04:04:26;;;;;;;1.30;1.30;;;;;;;21.15;37.33;99693.47;1868337;75;28091;-72
2022/01/07 04:07:15;;;;;;;1.20;1.20;;;;;;;21.15;37.27;99697.56;1881495;75;28168;-72
2022/01/07 04:10:05;;;;;;;1.30;1.30;;;;;;;21.20;37.20;99685.97;1870133;75;28141;-72
2022/01/07 04:12:53;;;;;;;1.35;1.25;;;;;;;21.15;37.21;99678.97;1882712;75;28135;-72
2022/01/07 04:15:43;;;;;;;1.12;1.12;;;;;;;21.17;37.18;99680.94;1867527;75;28107;-72
2022/01/07 04:18:31;;;;;;;1.20;1.20;;;;;;;21.15;37.22;99678.97;1879589;75;28051;-73
2022/01/07 04:21:20;;;;;;;1.40;1.30;;;;;;;21.20;37.24;99687.34;1869738;75;28145;-72
2022/01/07 04:24:10;;;;;;;1.57;1.47;;;;;;;21.13;37.17;99690.64;1874230;75;28024;-71
2022/01/07 04:26:58;;;;;;;1.50;1.40;;;;;;;21.16;37.21;99688.84;1859809;75;28160;-75
2022/01/07 04:29:47;;;;;;;1.40;1.30;;;;;;;21.18;37.17;99689.46;1891193;75;28051;-73
2022/01/07 04:32:37;;;;;;;1.50;1.40;;;;;;;21.20;37.15;99690.07;1874310;75;28038;-71
2022/01/07 04:35:28;;;;;;;1.12;1.12;;;;;;;21.17;37.13;99694.60;1871250;75;28068;-71
2022/01/07 04:38:16;;;;;;;1.40;1.40;;;;;;;21.19;37.17;99699.34;1879619;75;28121;-73
2022/01/07 04:41:04;;;;;;;1.52;1.42;;;;;;;21.20;37.11;99694.17;1885874;75;28052;-74
2022/01/07 04:43:53;;;;;;;1.20;1.20;;;;;;;21.19;37.09;99693.33;1868822;75;28194;-73
2022/01/07 04:46:41;;;;;;;1.20;1.20;;;;;;;21.19;37.05;99696.05;1860768;75;28233;-72
2022/01/07 04:49:29;;;;;;;1.30;1.30;;;;;;;21.19;37.05;99699.34;1879340;75;28606;-73
2022/01/07 04:52:20;;;;;;;1.37;1.30;;;;;;;21.20;37.04;99698.27;1879567;75;28753;-73
2022/01/07 04:55:09;;;;;;;1.40;1.30;;;;;;;21.20;37.05;99699.11;1883504;75;28160;-73
2022/01/07 04:57:58;;;;;;;1.40;1.30;;;;;;;21.19;36.99;99703.44;1881586;75;28108;-72
2022/01/07 05:00:48;;;;;;;1.27;1.22;;;;;;;21.19;37.00;99695.25;1879979;75;28028;-72
2022/01/07 05:03:36;;;;;;;1.30;1.20;;;;;;;21.22;37.00;99701.61;1881301;75;28109;-74
2022/01/07 05:06:59;;;;;;;1.37;1.27;;;;;;;21.24;36.94;99707.17;1886284;74;28146;-74
2022/01/07 05:09:21;;;;;;;1.35;1.30;;;;;;;21.23;36.90;99718.33;1878933;75;28085;-75
2022/01/07 05:12:09;;;;;;;1.50;1.40;;;;;;;21.21;36.96;99717.72;1879531;75;28021;-74
2022/01/07 05:14:59;;;;;;;1.40;1.40;;;;;;;21.21;36.92;99724.55;1891137;75;28057;-73
2022/01/07 05:17:48;;;;;;;1.20;1.20;;;;;;;21.21;36.90;99720.44;1870179;75;28087;-74
2022/01/07 05:20:38;;;;;;;1.45;1.40;;;;;;;21.17;36.90;99715.09;1881330;75;28023;-73
2022/01/07 05:23:27;;;;;;;1.20;1.10;;;;;;;21.18;36.94;99720.36;1868693;75;28188;-73
2022/01/07 05:26:16;;;;;;;1.30;1.20;;;;;;;21.21;36.88;99723.17;1867624;75;28175;-74
2022/01/07 05:29:05;;;;;;;1.90;1.40;;;;;;;21.17;36.92;99726.02;1885775;75;28065;-73
2022/01/07 05:31:53;;;;;;;1.30;1.20;;;;;;;21.20;36.88;99718.75;1873327;75;28148;-74
2022/01/07 05:34:42;;;;;;;1.52;1.42;;;;;;;21.18;36.89;99716.25;1881550;75;28051;-72
2022/01/07 05:37:31;;;;;;;1.42;1.32;;;;;;;21.19;36.86;99714.37;1872799;75;28628;-75
2022/01/07 05:40:20;;;;;;;1.40;1.30;;;;;;;21.17;36.86;99717.30;1883184;75;28093;-72
2022/01/07 05:43:08;;;;;;;1.40;1.30;;;;;;;21.17;36.91;99718.66;1873631;75;28017;-73
2022/01/07 05:45:57;;;;;;;1.30;1.30;;;;;;;21.19;36.87;99714.37;1886144;75;27957;-73
2022/01/07 05:48:47;;;;;;;1.30;1.30;;;;;;;21.18;36.86;99718.98;1875823;75;28075;-72
2022/01/07 05:51:36;;;;;;;1.47;1.37;;;;;;;21.21;36.87;99710.88;1876333;75;28235;-72
2022/01/07 05:54:24;;;;;;;1.17;1.17;;;;;;;21.20;36.80;99715.50;1879068;75;28243;-72
2022/01/07 05:57:13;;;;;;;1.50;1.40;;;;;;;21.19;36.90;99715.73;1881572;75;28111;-72
2022/01/07 06:00:01;;;;;;;1.37;1.27;;;;;;;21.20;36.85;99722.86;1901582;75;28060;-72
2022/01/07 06:02:52;;;;;;;1.33;1.33;;;;;;;21.20;36.80;99725.59;1893541;75;28020;-72
2022/01/07 06:05:41;;;;;;;1.40;1.30;;;;;;;21.21;36.79;99731.38;1867872;75;28135;-72
2022/01/07 06:08:32;;;;;;;1.20;1.20;;;;;;;21.20;36.84;99729.69;1907741;74;28605;-72
2022/01/07 06:11:22;;;;;;;1.30;1.20;;;;;;;21.20;36.86;99727.80;1901668;74;28185;-72
2022/01/07 06:14:11;;;;;;;1.20;1.20;;;;;;;21.18;36.83;99723.08;1894692;74;28035;-72
2022/01/07 06:16:59;;;;;;;1.20;1.20;;;;;;;21.19;36.79;99728.03;1839579;77;28286;-72
2022/01/07 06:19:49;;;;;;;1.32;1.25;;;;;;;21.20;36.83;99729.69;1835058;77;28976;-72
2022/01/07 06:22:37;;;;;;;1.50;1.40;;;;;;;21.23;36.78;99737.45;1839664;77;28255;-72
2022/01/07 06:25:26;;;;;;;1.27;1.20;;;;;;;21.20;36.80;99731.05;1845556;77;28597;-72
2022/01/07 06:28:19;;;;;;;1.10;1.10;;;;;;;21.21;36.73;99732.73;1830673;77;28251;-72
2022/01/07 06:31:07;;;;;;;1.40;1.30;;;;;;;21.19;36.74;99732.13;1857917;76;28175;-72
2022/01/07 06:33:58;;;;;;;1.30;1.30;;;;;;;21.16;36.76;99737.50;1834619;76;28257;-72
2022/01/07 06:36:49;;;;;;;1.40;1.40;;;;;;;21.16;36.72;99741.59;1835806;76;28400;-73
2022/01/07 06:39:37;;;;;;;1.30;1.30;;;;;;;21.15;36.75;99744.00;1853759;76;28183;-72
2022/01/07 06:42:25;;;;;;;1.30;1.30;;;;;;;21.19;36.69;99747.15;1841303;76;28896;-74
2022/01/07 06:45:14;;;;;;;2.10;2.00;;;;;;;21.14;36.72;99741.50;1846646;76;28763;-71
2022/01/07 06:48:03;;;;;;;1.50;1.40;;;;;;;20.92;35.28;99741.47;1835172;76;28280;-73
2022/01/07 06:50:51;;;;;;;1.15;1.15;;;;;;;20.96;36.13;99741.33;1851976;76;28451;-79
2022/01/07 06:53:40;;;;;;;1.60;1.42;;;;;;;21.02;36.24;99739.96;1850931;76;28230;-74
2022/01/07 06:56:29;;;;;;;2.85;2.60;;;;;;;20.98;36.26;99756.45;1847876;76;28386;-77
2022/01/07 06:59:18;;;;;;;2.25;2.15;;;;;;;20.09;30.57;99762.80;1852401;76;28278;-77
2022/01/07 07:02:09;;;;;;;1.90;1.62;;;;;;;20.15;32.27;99750.52;1842298;76;28740;-76
2022/01/07 07:04:56;;;;;;;2.00;1.70;;;;;;;20.26;33.46;99759.43;1850227;76;28389;-76
2022/01/07 07:07:45;;;;;;;1.70;1.60;;;;;;;20.35;33.71;99763.61;1848405;76;28195;-76
2022/01/07 07:10:33;;;;;;;1.65;1.55;;;;;;;20.41;33.71;99764.13;1836463;77;28293;-76
2022/01/07 07:13:23;;;;;;;1.70;1.60;;;;;;;20.48;33.68;99774.51;1857064;75;28184;-77
2022/01/07 07:16:11;;;;;;;1.50;1.40;;;;;;;20.55;33.57;99775.84;1883831;75;28019;-79
2022/01/07 07:19:00;;;;;;;1.60;1.50;;;;;;;20.58;33.48;99780.88;1864938;75;28093;-75
2022/01/07 07:21:49;;;;;;;2.10;1.90;;;;;;;20.54;33.55;99790.02;1888670;73;28223;-74
2022/01/07 07:24:39;;;;;;;1.70;1.60;;;;;;;20.56;33.58;99783.81;1879681;75;28267;-75
2022/01/07 07:27:27;;;;;;;1.80;1.70;;;;;;;20.62;33.64;99782.97;1898140;75;28574;-76
2022/01/07 07:30:17;;;;;;;1.80;1.70;;;;;;;20.68;33.67;99779.08;1868512;75;28505;-75
2022/01/07 07:33:30;;;;;;;2.10;1.65;;;;;;;20.70;33.62;99782.42;1869845;75;28176;-75
2022/01/07 07:39:08;;;;;;;2.23;1.80;;;;;;;20.73;33.74;99782.81;1889549;75;28138;-74
2022/01/07 07:41:56;;;;;;;1.90;1.77;;;;;;;20.74;33.79;99776.84;1872073;75;28169;-76
2022/01/07 07:44:48;;;;;;;1.70;1.50;;;;;;;20.77;33.78;99781.88;1885376;75;28172;-75
2022/01/07 07:47:40;;;;;;;1.90;1.70;;;;;;;20.80;33.84;99792.34;1889015;75;28459;-74
2022/01/07 07:50:29;;;;;;;1.70;1.60;;;;;;;20.78;33.84;99800.75;1877088;75;28171;-75
2022/01/07 07:53:19;;;;;;;1.60;1.50;;;;;;;20.80;33.89;99801.38;1872707;75;28109;-74
2022/01/07 07:56:09;;;;;;;1.70;1.60;;;;;;;20.85;33.93;99808.92;1867720;75;28144;-74
2022/01/07 07:58:58;;;;;;;1.60;1.50;;;;;;;20.81;33.94;99801.70;1873486;75;28330;-74
2022/01/07 08:01:50;;;;;;;1.50;1.40;;;;;;;20.82;34.00;99798.45;1883709;75;28204;-76
2022/01/07 08:04:40;;;;;;;1.60;1.50;;;;;;;20.79;34.17;99794.78;1874909;74;28044;-76
2022/01/07 08:07:28;;;;;;;1.87;1.50;;;;;;;20.77;34.33;99792.24;1872130;75;28223;-79
2022/01/07 08:10:24;;;;;;;2.37;1.50;;;;;;;20.75;34.48;99786.72;1868775;74;28176;-80
2022/01/07 08:16:06;;;;;;;1.50;1.40;;;;;;;20.79;34.70;99786.59;1886816;75;28245;-79
2022/01/07 08:18:58;;;;;;;1.57;1.40;;;;;;;20.79;34.75;99786.06;1860908;75;28155;-79
2022/01/07 08:21:47;;;;;;;1.52;1.42;;;;;;;20.83;34.74;99785.94;1878479;75;28539;-76
2022/01/07 08:24:35;;;;;;;1.65;1.55;;;;;;;20.89;34.69;99787.79;1890582;75;28099;-79
2022/01/07 08:27:23;;;;;;;1.75;1.50;;;;;;;20.83;34.76;99783.73;1862363;75;28198;-77
2022/01/07 08:30:20;;;;;;;1.65;1.45;;;;;;;20.82;34.75;99784.25;1872194;75;28108;-72
2022/01/07 08:36:17;;;;;;;2.00;1.50;;;;;;;20.88;34.77;99772.48;1879357;75;28165;-73
2022/01/07 08:39:07;;;;;;;1.50;1.40;;;;;;;20.86;34.86;99771.02;1876887;75;28141;-72
2022/01/07 08:41:56;;;;;;;1.30;1.30;;;;;;;20.90;34.82;99766.79;1883808;75;28087;-72
2022/01/07 08:44:45;;;;;;;1.60;1.50;;;;;;;20.91;34.85;99770.66;1884923;75;28040;-70
2022/01/07 08:47:34;;;;;;;1.55;1.45;;;;;;;20.92;34.88;99777.81;1879265;75;28227;-71
2022/01/07 08:50:24;;;;;;;1.60;1.50;;;;;;;20.84;35.10;99780.77;1865465;75;28113;-72
2022/01/07 08:53:14;;;;;;;2.10;1.60;;;;;;;20.86;35.35;99778.69;1885399;75;28085;-72
2022/01/07 08:56:04;;;;;;;3.00;1.60;;;;;;;20.91;35.38;99786.23;1880259;75;28115;-67
2022/01/07 08:58:57;;;;;;;2.35;1.55;;;;;;;20.89;35.67;99787.79;1859882;75;28119;-67
2022/01/07 09:01:46;;;;;;;1.90;1.60;;;;;;;20.81;35.96;99782.59;1878572;75;28020;-67
2022/01/07 09:04:35;;;;;;;1.92;1.50;;;;;;;20.79;36.19;99790.68;1873232;75;28247;-70
2022/01/07 09:07:23;;;;;;;2.98;1.77;;;;;;;20.77;36.35;99792.24;1896324;75;31025;-68
2022/01/07 09:10:11;;;;;;;3.15;1.60;;;;;;;20.73;36.56;99795.09;1884095;74;28290;-70
2022/01/07 09:13:00;;;;;;;2.08;1.50;;;;;;;20.74;36.67;99795.94;1890502;74;28303;-69
2022/01/07 09:15:48;;;;;;;1.52;1.42;;;;;;;20.72;36.81;99798.91;1888913;75;28229;-69
2022/01/07 09:18:37;;;;;;;2.52;1.52;;;;;;;20.71;36.87;99801.83;1881559;74;28204;-69
2022/01/07 09:21:25;;;;;;;1.97;1.60;;;;;;;20.71;36.95;99794.48;1899604;74;28107;-69
2022/01/07 09:24:13;;;;;;;1.62;1.52;;;;;;;20.75;36.93;99803.09;1905901;74;28138;-68
2022/01/07 09:27:02;;;;;;;1.50;1.40;;;;;;;20.72;37.01;99801.63;1882042;74;28148;-69
2022/01/07 09:29:51;;;;;;;2.77;1.70;;;;;;;20.70;37.08;99807.80;1894337;74;28025;-70
2022/01/07 09:32:40;;;;;;;1.65;1.50;;;;;;;20.71;37.11;99799.09;1889499;74;28156;-70
2022/01/07 09:35:28;;;;;;;1.72;1.57;;;;;;;20.67;37.13;99794.61;1894370;74;28148;-69
2022/01/07 09:38:17;;;;;;;1.55;1.50;;;;;;;20.70;37.14;99806.44;1893126;74;28156;-70
2022/01/07 09:41:07;;;;;;;1.55;1.45;;;;;;;20.68;37.22;99788.08;1900722;74;28134;-69
2022/01/07 09:43:57;;;;;;;1.62;1.52;;;;;;;20.65;37.22;99789.34;1898471;74;28098;-70
2022/01/07 09:46:46;;;;;;;1.70;1.50;;;;;;;20.68;37.23;99789.44;1889256;74;29975;-69
2022/01/07 09:49:35;;;;;;;1.60;1.50;;;;;;;20.68;37.25;99787.27;1900539;74;32016;-70
2022/01/07 09:52:26;;;;;;;1.80;1.70;;;;;;;20.65;37.25;99787.98;1893750;74;28191;-70
2022/01/07 09:55:15;;;;;;;3.42;1.50;;;;;;;20.64;37.29;99793.14;1891923;74;28224;-70
2022/01/07 09:58:05;;;;;;;2.12;1.60;;;;;;;20.68;37.29;99793.02;1882806;74;28265;-68
2022/01/07 10:00:57;;;;;;;1.60;1.40;;;;;;;20.72;37.19;99800.78;1900422;74;28128;-69
2022/01/07 10:03:48;;;;;;;1.60;1.50;;;;;;;20.70;37.26;99806.44;1903122;74;28022;-68
2022/01/07 10:06:38;;;;;;;1.85;1.55;;;;;;;20.68;37.26;99803.94;1891913;74;28125;-71
2022/01/07 10:09:30;;;;;;;1.40;1.40;;;;;;;20.68;37.23;99808.55;1892912;74;28143;-70
2022/01/07 10:12:18;;;;;;;1.50;1.40;;;;;;;20.72;37.23;99811.70;1889427;74;28034;-69
2022/01/07 10:15:18;;;;;;;1.50;1.40;;;;;;;20.72;37.20;99805.72;1908154;74;28001;-69
2022/01/07 10:18:13;;;;;;;1.62;1.52;;;;;;;20.71;37.24;99804.55;1889486;74;28136;-69
2022/01/07 10:21:05;;;;;;;2.83;1.70;;;;;;;20.70;37.30;99798.80;1896202;74;28106;-70
2022/01/07 10:23:56;;;;;;;1.40;1.30;;;;;;;20.70;37.31;99794.70;1890659;74;28047;-69
2022/01/07 10:26:49;;;;;;;2.85;1.50;;;;;;;20.68;37.32;99792.72;1884903;74;28098;-71
2022/01/07 10:29:43;;;;;;;1.57;1.47;;;;;;;20.67;37.31;99787.78;1893673;74;28190;-70
2022/01/07 10:32:33;;;;;;;1.57;1.47;;;;;;;20.68;37.36;99794.09;1891254;74;28169;-69
2022/01/07 10:35:25;;;;;;;1.60;1.50;;;;;;;20.69;37.38;99789.77;1892531;74;28035;-69
2022/01/07 10:38:19;;;;;;;1.50;1.40;;;;;;;20.68;37.32;99788.08;1901243;74;28108;-69
2022/01/07 10:41:12;;;;;;;1.60;1.37;;;;;;;20.67;37.35;99783.69;1904434;74;38293;-69
2022/01/07 10:44:08;;;;;;;1.40;1.30;;;;;;;20.69;37.33;99780.21;1900133;74;28119;-68
2022/01/07 10:46:55;;;;;;;1.40;1.30;;;;;;;20.71;37.35;99785.45;1903368;74;28156;-71
2022/01/07 10:49:43;;;;;;;1.40;1.30;;;;;;;20.71;37.28;99781.35;1889562;74;28150;-69
2022/01/07 10:52:32;;;;;;;1.77;1.60;;;;;;;20.70;37.31;99785.16;1888970;74;28075;-69
2022/01/07 10:55:26;;;;;;;1.70;1.53;;;;;;;20.69;37.35;99784.31;1899911;74;28059;-71
2022/01/07 10:58:12;;;;;;;1.60;1.50;;;;;;;20.67;37.37;99776.86;1895262;74;28100;-69
2022/01/07 11:01:00;;;;;;;1.60;1.50;;;;;;;20.68;37.34;99774.98;1907612;74;28206;-69
2022/01/07 11:03:55;;;;;;;1.75;1.55;;;;;;;20.74;37.34;99779.56;1903473;74;28019;-69
2022/01/07 11:06:43;;;;;;;1.45;1.35;;;;;;;20.70;37.32;99779.69;1889087;74;28236;-69
2022/01/07 11:09:32;;;;;;;1.57;1.40;;;;;;;20.65;37.37;99776.24;1884499;74;28239;-69
2022/01/07 11:12:22;;;;;;;1.30;1.30;;;;;;;20.68;37.40;99771.70;1879034;74;28133;-69
2022/01/07 11:15:11;;;;;;;1.60;1.50;;;;;;;20.70;37.34;99771.50;1903858;74;28039;-69
2022/01/07 11:18:00;;;;;;;1.70;1.37;;;;;;;20.68;37.38;99776.34;1908436;74;28055;-68
2022/01/07 11:20:51;;;;;;;1.50;1.40;;;;;;;20.66;37.46;99780.63;1895649;74;28096;-70
2022/01/07 11:23:41;;;;;;;1.60;1.50;;;;;;;20.65;37.48;99771.59;1890299;74;28117;-69
2022/01/07 11:26:31;;;;;;;1.40;1.30;;;;;;;20.69;37.44;99772.02;1903997;74;28125;-69
2022/01/07 11:29:19;;;;;;;1.57;1.47;;;;;;;20.71;37.45;99759.52;1898267;74;28022;-69
2022/01/07 11:32:29;;;;;;;1.45;1.35;;;;;;;20.73;37.42;99754.67;1896117;73;28143;-71
2022/01/07 11:35:23;;;;;;;1.55;1.35;;;;;;;20.68;37.40;99743.59;1890729;74;28178;-70
2022/01/07 11:38:18;;;;;;;1.40;1.30;;;;;;;20.64;37.49;99751.35;1894232;74;28059;-71
2022/01/07 11:41:09;;;;;;;1.30;1.20;;;;;;;20.64;37.50;99754.08;1907918;74;27987;-71
2022/01/07 11:44:01;;;;;;;1.60;1.50;;;;;;;20.63;37.53;99753.23;1897747;74;28115;-71
2022/01/07 11:46:49;;;;;;;1.50;1.40;;;;;;;20.66;37.53;99755.55;1890641;74;28168;-71
2022/01/07 11:49:38;;;;;;;1.40;1.30;;;;;;;20.63;37.52;99760.06;1907618;74;28094;-73
2022/01/07 11:52:32;;;;;;;3.25;1.70;;;;;;;20.68;37.52;99758.60;1888741;74;28167;-71
2022/01/07 11:55:23;;;;;;;1.50;1.40;;;;;;;20.69;37.49;99751.55;1895321;74;28618;-71
2022/01/07 11:58:14;;;;;;;1.67;1.57;;;;;;;20.68;37.55;99739.50;1891422;74;28060;-72
2022/01/07 12:01:04;;;;;;;1.50;1.40;;;;;;;20.66;37.50;99739.17;1918712;73;27985;-70
2022/01/07 12:04:02;;;;;;;2.00;1.77;;;;;;;20.66;37.54;99737.80;1913580;73;28039;-71
2022/01/07 12:06:48;;;;;;;2.15;1.67;;;;;;;20.68;37.57;99734.33;1884258;74;28684;-71
2022/01/07 12:09:39;;;;;;;2.60;1.70;;;;;;;20.66;37.54;99728.25;1892216;75;28091;-72
2022/01/07 12:12:30;;;;;;;1.83;1.67;;;;;;;20.63;37.54;99724.58;1900418;74;28160;-73
2022/01/07 12:15:18;;;;;;;2.10;2.00;;;;;;;20.61;37.59;99723.96;1900270;74;28177;-72
2022/01/07 12:18:10;;;;;;;2.20;2.00;;;;;;;20.58;37.62;99709.38;1899627;74;28167;-72
2022/01/07 12:20:59;;;;;;;2.05;1.72;;;;;;;20.61;37.65;99704.86;1894909;74;28189;-71
2022/01/07 12:23:47;;;;;;;3.12;2.22;;;;;;;20.59;37.70;99700.15;1900490;74;28200;-71
2022/01/07 12:26:37;;;;;;;2.10;1.92;;;;;;;20.62;37.65;99694.27;1900196;74;28008;-71
2022/01/07 12:29:26;;;;;;;2.40;2.20;;;;;;;20.62;37.67;99685.23;1904809;74;28072;-72
2022/01/07 12:32:18;;;;;;;2.47;2.27;;;;;;;20.56;37.76;99692.94;1907287;73;28031;-72
2022/01/07 12:35:09;;;;;;;2.67;2.30;;;;;;;20.58;37.72;99701.74;1887574;74;28034;-73
2022/01/07 12:37:57;;;;;;;2.50;2.30;;;;;;;20.61;37.67;99706.22;1906681;74;28154;-73
2022/01/07 12:40:54;;;;;;;2.58;2.37;;;;;;;20.60;37.68;99701.84;1908841;74;28056;-71
2022/01/07 12:43:43;;;;;;;3.37;2.60;;;;;;;20.56;37.73;99703.30;1897726;74;28056;-73
2022/01/07 12:46:31;;;;;;;3.47;2.75;;;;;;;20.54;37.82;99701.84;1888162;75;28012;-74
2022/01/07 12:49:20;;;;;;;2.77;2.47;;;;;;;20.57;37.81;99700.05;1910507;74;28114;-75
2022/01/07 12:52:23;;;;;;;3.33;2.50;;;;;;;20.56;37.78;99697.03;1889436;74;28181;-75
2022/01/07 12:55:18;;;;;;;4.10;2.80;;;;;;;20.54;37.82;99706.78;1897356;74;28109;-74
2022/01/07 12:58:08;;;;;;;3.85;2.98;;;;;;;20.52;37.85;99703.95;1895809;74;28152;-75
2022/01/07 13:00:56;;;;;;;3.72;2.90;;;;;;;20.52;37.87;99702.58;1900413;74;28494;-73
2022/01/07 13:03:44;;;;;;;2.93;2.50;;;;;;;20.55;37.87;99688.52;1900615;74;28171;-74
2022/01/07 13:06:42;;;;;;;4.37;2.67;;;;;;;20.54;37.82;99682.22;1878701;75;28242;-74
2022/01/07 13:09:30;;;;;;;2.70;2.50;;;;;;;20.55;37.78;99683.06;1878585;76;28129;-73
2022/01/07 13:12:22;;;;;;;2.70;2.50;;;;;;;20.53;37.79;99692.84;1908709;74;28011;-73
2022/01/07 13:15:11;;;;;;;4.12;2.42;;;;;;;20.56;37.71;99686.92;1906033;74;28070;-73
2022/01/07 13:18:20;;;;;;;3.50;2.80;;;;;;;20.52;37.76;99672.05;1878603;75;28145;-73
2022/01/07 13:21:12;;;;;;;3.27;3.00;;;;;;;20.50;37.71;99661.88;1891983;74;28198;-75
2022/01/07 13:24:01;;;;;;;2.90;2.70;;;;;;;20.49;37.78;99664.28;1878803;76;28193;-75
2022/01/07 13:26:54;;;;;;;3.10;2.72;;;;;;;20.50;37.71;99670.06;1900183;74;28177;-73
2022/01/07 13:29:48;;;;;;;3.37;3.00;;;;;;;20.48;37.73;99664.52;1900295;74;28093;-73